sensor_id;sensor_type;location;lat;lon;timestamp;P1;durP1;ratioP1;P2;durP2;ratioP2
76604;SDS011;73179;50.978;16.998;2023-11-21T00:00:36;6.95;;;3.03;;
76604;SDS011;73179;50.978;16.998;2023-11-21T00:03:22;8.35;;;3.40;;
76604;SDS011;73179;50.978;16.998;2023-11-21T00:05:48;7.63;;;3.58;;
76604;SDS011;73179;50.978;16.998;2023-11-21T00:08:15;6.22;;;3.10;;
76604;SDS011;73179;50.978;16.998;2023-11-21T00:10:40;6.25;;;3.28;;
76604;SDS011;73179;50.978;16.998;2023-11-21T00:13:07;7.57;;;3.20;;
76604;SDS011;73179;50.978;16.998;2023-11-21T00:15:33;7.65;;;3.45;;
76604;SDS011;73179;50.978;16.998;2023-11-21T00:17:59;6.07;;;2.95;;
76604;SDS011;73179;50.978;16.998;2023-11-21T00:20:25;9.13;;;3.20;;
76604;SDS011;73179;50.978;16.998;2023-11-21T00:22:51;7.32;;;2.83;;
76604;SDS011;73179;50.978;16.998;2023-11-21T00:25:17;8.55;;;3.00;;
76604;SDS011;73179;50.978;16.998;2023-11-21T00:27:43;6.13;;;3.42;;
76604;SDS011;73179;50.978;16.998;2023-11-21T00:30:09;5.50;;;3.63;;
76604;SDS011;73179;50.978;16.998;2023-11-21T00:32:36;6.93;;;3.42;;
76604;SDS011;73179;50.978;16.998;2023-11-21T00:35:03;6.70;;;3.30;;
76604;SDS011;73179;50.978;16.998;2023-11-21T00:37:29;9.82;;;3.65;;
76604;SDS011;73179;50.978;16.998;2023-11-21T00:39:57;7.10;;;3.55;;
76604;SDS011;73179;50.978;16.998;2023-11-21T00:42:23;7.55;;;3.60;;
76604;SDS011;73179;50.978;16.998;2023-11-21T00:44:49;7.50;;;3.35;;
76604;SDS011;73179;50.978;16.998;2023-11-21T00:47:15;8.00;;;4.00;;
76604;SDS011;73179;50.978;16.998;2023-11-21T00:49:41;8.52;;;3.63;;
76604;SDS011;73179;50.978;16.998;2023-11-21T00:52:08;8.75;;;4.00;;
76604;SDS011;73179;50.978;16.998;2023-11-21T00:54:34;8.48;;;3.55;;
76604;SDS011;73179;50.978;16.998;2023-11-21T00:57:01;12.45;;;4.47;;
76604;SDS011;73179;50.978;16.998;2023-11-21T00:59:27;10.48;;;4.32;;
76604;SDS011;73179;50.978;16.998;2023-11-21T01:01:53;8.77;;;3.95;;
76604;SDS011;73179;50.978;16.998;2023-11-21T01:04:19;10.30;;;4.40;;
76604;SDS011;73179;50.978;16.998;2023-11-21T01:06:45;6.63;;;4.18;;
76604;SDS011;73179;50.978;16.998;2023-11-21T01:09:11;7.03;;;4.68;;
76604;SDS011;73179;50.978;16.998;2023-11-21T01:11:38;12.52;;;4.85;;
76604;SDS011;73179;50.978;16.998;2023-11-21T01:14:04;9.60;;;4.18;;
76604;SDS011;73179;50.978;16.998;2023-11-21T01:16:32;10.73;;;4.13;;
76604;SDS011;73179;50.978;16.998;2023-11-21T01:18:59;8.65;;;4.40;;
76604;SDS011;73179;50.978;16.998;2023-11-21T01:21:25;9.32;;;4.15;;
76604;SDS011;73179;50.978;16.998;2023-11-21T01:23:51;8.38;;;4.72;;
76604;SDS011;73179;50.978;16.998;2023-11-21T01:26:17;8.93;;;3.97;;
76604;SDS011;73179;50.978;16.998;2023-11-21T01:28:43;9.55;;;5.10;;
76604;SDS011;73179;50.978;16.998;2023-11-21T01:31:09;8.95;;;4.60;;
76604;SDS011;73179;50.978;16.998;2023-11-21T01:33:35;8.25;;;4.78;;
76604;SDS011;73179;50.978;16.998;2023-11-21T01:36:01;11.00;;;4.10;;
76604;SDS011;73179;50.978;16.998;2023-11-21T01:38:27;8.23;;;5.05;;
76604;SDS011;73179;50.978;16.998;2023-11-21T01:40:53;9.43;;;4.90;;
76604;SDS011;73179;50.978;16.998;2023-11-21T01:43:19;7.20;;;4.63;;
76604;SDS011;73179;50.978;16.998;2023-11-21T01:45:46;14.43;;;5.50;;
76604;SDS011;73179;50.978;16.998;2023-11-21T01:48:12;11.38;;;5.60;;
76604;SDS011;73179;50.978;16.998;2023-11-21T01:50:39;8.13;;;4.20;;
76604;SDS011;73179;50.978;16.998;2023-11-21T01:53:05;7.75;;;4.28;;
76604;SDS011;73179;50.978;16.998;2023-11-21T01:55:32;14.30;;;4.90;;
76604;SDS011;73179;50.978;16.998;2023-11-21T01:57:59;10.90;;;4.22;;
76604;SDS011;73179;50.978;16.998;2023-11-21T02:00:26;9.13;;;4.90;;
76604;SDS011;73179;50.978;16.998;2023-11-21T02:02:52;8.85;;;4.65;;
76604;SDS011;73179;50.978;16.998;2023-11-21T02:05:18;9.35;;;4.47;;
76604;SDS011;73179;50.978;16.998;2023-11-21T02:07:45;10.23;;;5.18;;
76604;SDS011;73179;50.978;16.998;2023-11-21T02:10:15;8.88;;;4.75;;
76604;SDS011;73179;50.978;16.998;2023-11-21T02:12:41;9.82;;;4.40;;
76604;SDS011;73179;50.978;16.998;2023-11-21T02:15:09;10.02;;;4.88;;
76604;SDS011;73179;50.978;16.998;2023-11-21T02:17:43;9.75;;;4.57;;
76604;SDS011;73179;50.978;16.998;2023-11-21T02:20:12;8.38;;;4.88;;
76604;SDS011;73179;50.978;16.998;2023-11-21T02:22:43;7.35;;;4.20;;
76604;SDS011;73179;50.978;16.998;2023-11-21T02:25:24;11.32;;;4.75;;
76604;SDS011;73179;50.978;16.998;2023-11-21T02:27:53;12.50;;;5.03;;
76604;SDS011;73179;50.978;16.998;2023-11-21T02:30:21;10.65;;;5.03;;
76604;SDS011;73179;50.978;16.998;2023-11-21T02:32:48;8.75;;;4.50;;
76604;SDS011;73179;50.978;16.998;2023-11-21T02:35:14;9.10;;;4.10;;
76604;SDS011;73179;50.978;16.998;2023-11-21T02:37:41;11.40;;;4.53;;
76604;SDS011;73179;50.978;16.998;2023-11-21T02:40:08;9.48;;;4.78;;
76604;SDS011;73179;50.978;16.998;2023-11-21T02:42:38;10.02;;;4.72;;
76604;SDS011;73179;50.978;16.998;2023-11-21T02:45:05;10.18;;;4.30;;
76604;SDS011;73179;50.978;16.998;2023-11-21T02:47:32;10.10;;;4.68;;
76604;SDS011;73179;50.978;16.998;2023-11-21T02:49:59;6.70;;;4.07;;
76604;SDS011;73179;50.978;16.998;2023-11-21T02:52:25;12.38;;;5.63;;
76604;SDS011;73179;50.978;16.998;2023-11-21T02:54:51;7.05;;;4.03;;
76604;SDS011;73179;50.978;16.998;2023-11-21T02:57:17;12.45;;;4.18;;
76604;SDS011;73179;50.978;16.998;2023-11-21T02:59:44;9.25;;;4.35;;
76604;SDS011;73179;50.978;16.998;2023-11-21T03:02:10;8.27;;;4.15;;
76604;SDS011;73179;50.978;16.998;2023-11-21T03:04:36;8.95;;;4.40;;
76604;SDS011;73179;50.978;16.998;2023-11-21T03:07:02;10.95;;;4.50;;
76604;SDS011;73179;50.978;16.998;2023-11-21T03:09:28;9.05;;;4.00;;
76604;SDS011;73179;50.978;16.998;2023-11-21T03:11:54;10.23;;;4.28;;
76604;SDS011;73179;50.978;16.998;2023-11-21T03:14:20;9.02;;;3.75;;
76604;SDS011;73179;50.978;16.998;2023-11-21T03:16:46;10.10;;;4.00;;
76604;SDS011;73179;50.978;16.998;2023-11-21T03:19:12;8.55;;;4.10;;
76604;SDS011;73179;50.978;16.998;2023-11-21T03:21:38;8.18;;;4.80;;
76604;SDS011;73179;50.978;16.998;2023-11-21T03:24:04;10.45;;;4.82;;
76604;SDS011;73179;50.978;16.998;2023-11-21T03:26:30;8.23;;;4.45;;
76604;SDS011;73179;50.978;16.998;2023-11-21T03:28:56;9.38;;;4.90;;
76604;SDS011;73179;50.978;16.998;2023-11-21T03:31:22;8.57;;;4.78;;
76604;SDS011;73179;50.978;16.998;2023-11-21T03:33:48;9.18;;;4.85;;
76604;SDS011;73179;50.978;16.998;2023-11-21T03:36:14;8.88;;;4.50;;
76604;SDS011;73179;50.978;16.998;2023-11-21T03:38:40;7.85;;;4.32;;
76604;SDS011;73179;50.978;16.998;2023-11-21T03:41:07;9.38;;;5.50;;
76604;SDS011;73179;50.978;16.998;2023-11-21T03:43:36;12.20;;;4.80;;
76604;SDS011;73179;50.978;16.998;2023-11-21T03:46:02;9.40;;;4.88;;
76604;SDS011;73179;50.978;16.998;2023-11-21T03:48:29;8.70;;;5.15;;
76604;SDS011;73179;50.978;16.998;2023-11-21T03:50:55;6.75;;;4.57;;
76604;SDS011;73179;50.978;16.998;2023-11-21T03:53:21;10.52;;;5.03;;
76604;SDS011;73179;50.978;16.998;2023-11-21T03:55:47;10.63;;;5.22;;
76604;SDS011;73179;50.978;16.998;2023-11-21T03:58:14;10.05;;;4.50;;
76604;SDS011;73179;50.978;16.998;2023-11-21T04:00:40;6.97;;;4.53;;
76604;SDS011;73179;50.978;16.998;2023-11-21T04:03:06;9.20;;;4.93;;
76604;SDS011;73179;50.978;16.998;2023-11-21T04:05:33;8.13;;;4.53;;
76604;SDS011;73179;50.978;16.998;2023-11-21T04:07:59;9.85;;;5.10;;
76604;SDS011;73179;50.978;16.998;2023-11-21T04:10:25;7.82;;;4.72;;
76604;SDS011;73179;50.978;16.998;2023-11-21T04:12:51;10.00;;;5.05;;
76604;SDS011;73179;50.978;16.998;2023-11-21T04:15:17;8.07;;;5.20;;
76604;SDS011;73179;50.978;16.998;2023-11-21T04:17:43;11.10;;;4.97;;
76604;SDS011;73179;50.978;16.998;2023-11-21T04:20:09;10.73;;;6.13;;
76604;SDS011;73179;50.978;16.998;2023-11-21T04:22:42;10.90;;;5.22;;
76604;SDS011;73179;50.978;16.998;2023-11-21T04:25:10;9.95;;;5.07;;
76604;SDS011;73179;50.978;16.998;2023-11-21T04:27:38;10.65;;;4.90;;
76604;SDS011;73179;50.978;16.998;2023-11-21T04:30:11;11.68;;;5.38;;
76604;SDS011;73179;50.978;16.998;2023-11-21T04:32:38;10.98;;;4.88;;
76604;SDS011;73179;50.978;16.998;2023-11-21T04:35:05;11.07;;;5.60;;
76604;SDS011;73179;50.978;16.998;2023-11-21T04:37:31;11.80;;;5.63;;
76604;SDS011;73179;50.978;16.998;2023-11-21T04:39:58;11.07;;;5.22;;
76604;SDS011;73179;50.978;16.998;2023-11-21T04:42:23;13.63;;;5.07;;
76604;SDS011;73179;50.978;16.998;2023-11-21T04:44:49;13.98;;;6.03;;
76604;SDS011;73179;50.978;16.998;2023-11-21T04:47:15;11.10;;;4.50;;
76604;SDS011;73179;50.978;16.998;2023-11-21T04:49:42;11.10;;;5.82;;
76604;SDS011;73179;50.978;16.998;2023-11-21T04:52:09;9.85;;;5.15;;
76604;SDS011;73179;50.978;16.998;2023-11-21T04:54:35;8.18;;;4.28;;
76604;SDS011;73179;50.978;16.998;2023-11-21T04:57:01;7.50;;;4.93;;
76604;SDS011;73179;50.978;16.998;2023-11-21T04:59:27;9.68;;;5.65;;
76604;SDS011;73179;50.978;16.998;2023-11-21T05:01:53;9.50;;;5.25;;
76604;SDS011;73179;50.978;16.998;2023-11-21T05:04:20;11.75;;;5.15;;
76604;SDS011;73179;50.978;16.998;2023-11-21T05:06:47;17.52;;;5.90;;
76604;SDS011;73179;50.978;16.998;2023-11-21T05:09:14;9.48;;;5.45;;
76604;SDS011;73179;50.978;16.998;2023-11-21T05:11:41;11.63;;;5.10;;
76604;SDS011;73179;50.978;16.998;2023-11-21T05:14:07;9.68;;;5.07;;
76604;SDS011;73179;50.978;16.998;2023-11-21T05:16:34;10.30;;;5.43;;
76604;SDS011;73179;50.978;16.998;2023-11-21T05:19:01;18.85;;;5.78;;
76604;SDS011;73179;50.978;16.998;2023-11-21T05:21:27;8.23;;;5.03;;
76604;SDS011;73179;50.978;16.998;2023-11-21T05:23:53;12.02;;;5.50;;
76604;SDS011;73179;50.978;16.998;2023-11-21T05:26:19;11.07;;;5.65;;
76604;SDS011;73179;50.978;16.998;2023-11-21T05:28:46;13.20;;;5.68;;
76604;SDS011;73179;50.978;16.998;2023-11-21T05:31:11;10.70;;;5.47;;
76604;SDS011;73179;50.978;16.998;2023-11-21T05:33:38;11.38;;;5.82;;
76604;SDS011;73179;50.978;16.998;2023-11-21T05:36:04;11.15;;;5.63;;
76604;SDS011;73179;50.978;16.998;2023-11-21T05:38:30;14.73;;;6.25;;
76604;SDS011;73179;50.978;16.998;2023-11-21T05:40:56;9.48;;;5.55;;
76604;SDS011;73179;50.978;16.998;2023-11-21T05:43:24;11.95;;;6.15;;
76604;SDS011;73179;50.978;16.998;2023-11-21T05:45:50;10.80;;;5.97;;
76604;SDS011;73179;50.978;16.998;2023-11-21T05:48:16;11.88;;;5.68;;
76604;SDS011;73179;50.978;16.998;2023-11-21T05:50:42;9.23;;;5.18;;
76604;SDS011;73179;50.978;16.998;2023-11-21T05:53:08;14.93;;;5.72;;
76604;SDS011;73179;50.978;16.998;2023-11-21T05:55:36;11.02;;;5.43;;
76604;SDS011;73179;50.978;16.998;2023-11-21T05:58:03;9.50;;;5.45;;
76604;SDS011;73179;50.978;16.998;2023-11-21T06:00:29;11.10;;;5.95;;
76604;SDS011;73179;50.978;16.998;2023-11-21T06:02:55;11.85;;;6.15;;
76604;SDS011;73179;50.978;16.998;2023-11-21T06:05:23;16.45;;;7.10;;
76604;SDS011;73179;50.978;16.998;2023-11-21T06:07:50;13.13;;;6.57;;
76604;SDS011;73179;50.978;16.998;2023-11-21T06:10:19;12.85;;;6.25;;
76604;SDS011;73179;50.978;16.998;2023-11-21T06:12:49;9.63;;;5.40;;
76604;SDS011;73179;50.978;16.998;2023-11-21T06:15:15;8.80;;;5.53;;
76604;SDS011;73179;50.978;16.998;2023-11-21T06:17:42;11.88;;;5.22;;
76604;SDS011;73179;50.978;16.998;2023-11-21T06:20:10;10.45;;;4.95;;
76604;SDS011;73179;50.978;16.998;2023-11-21T06:22:40;11.15;;;5.07;;
76604;SDS011;73179;50.978;16.998;2023-11-21T06:25:07;12.90;;;5.32;;
76604;SDS011;73179;50.978;16.998;2023-11-21T06:27:37;12.65;;;4.82;;
76604;SDS011;73179;50.978;16.998;2023-11-21T06:30:05;8.93;;;5.47;;
76604;SDS011;73179;50.978;16.998;2023-11-21T06:32:32;10.25;;;5.45;;
76604;SDS011;73179;50.978;16.998;2023-11-21T06:34:58;15.45;;;6.28;;
76604;SDS011;73179;50.978;16.998;2023-11-21T06:37:27;9.77;;;5.45;;
76604;SDS011;73179;50.978;16.998;2023-11-21T06:39:54;14.55;;;5.47;;
76604;SDS011;73179;50.978;16.998;2023-11-21T06:42:22;17.98;;;7.15;;
76604;SDS011;73179;50.978;16.998;2023-11-21T06:44:49;14.38;;;6.05;;
76604;SDS011;73179;50.978;16.998;2023-11-21T06:47:23;13.70;;;5.78;;
76604;SDS011;73179;50.978;16.998;2023-11-21T06:49:53;13.60;;;6.30;;
76604;SDS011;73179;50.978;16.998;2023-11-21T06:52:19;14.00;;;5.80;;
76604;SDS011;73179;50.978;16.998;2023-11-21T06:54:45;13.48;;;6.43;;
76604;SDS011;73179;50.978;16.998;2023-11-21T06:57:13;14.13;;;7.00;;
76604;SDS011;73179;50.978;16.998;2023-11-21T06:59:39;14.45;;;6.15;;
76604;SDS011;73179;50.978;16.998;2023-11-21T07:02:05;15.77;;;6.18;;
76604;SDS011;73179;50.978;16.998;2023-11-21T07:04:35;13.02;;;6.25;;
76604;SDS011;73179;50.978;16.998;2023-11-21T07:07:02;10.38;;;5.85;;
76604;SDS011;73179;50.978;16.998;2023-11-21T07:09:29;11.18;;;5.10;;
76604;SDS011;73179;50.978;16.998;2023-11-21T07:11:55;12.05;;;6.05;;
76604;SDS011;73179;50.978;16.998;2023-11-21T07:14:21;12.35;;;7.68;;
76604;SDS011;73179;50.978;16.998;2023-11-21T07:16:47;12.38;;;6.40;;
76604;SDS011;73179;50.978;16.998;2023-11-21T07:19:13;18.23;;;6.20;;
76604;SDS011;73179;50.978;16.998;2023-11-21T07:21:40;16.25;;;6.75;;
76604;SDS011;73179;50.978;16.998;2023-11-21T07:24:06;16.88;;;7.10;;
76604;SDS011;73179;50.978;16.998;2023-11-21T07:26:34;11.35;;;6.78;;
76604;SDS011;73179;50.978;16.998;2023-11-21T07:29:00;12.27;;;5.97;;
76604;SDS011;73179;50.978;16.998;2023-11-21T07:31:28;11.90;;;6.05;;
76604;SDS011;73179;50.978;16.998;2023-11-21T07:33:55;13.95;;;6.50;;
76604;SDS011;73179;50.978;16.998;2023-11-21T07:36:24;11.40;;;6.70;;
76604;SDS011;73179;50.978;16.998;2023-11-21T07:38:50;17.30;;;7.50;;
76604;SDS011;73179;50.978;16.998;2023-11-21T07:41:17;14.70;;;6.18;;
76604;SDS011;73179;50.978;16.998;2023-11-21T07:43:46;17.77;;;6.72;;
76604;SDS011;73179;50.978;16.998;2023-11-21T07:46:13;14.85;;;6.22;;
76604;SDS011;73179;50.978;16.998;2023-11-21T07:48:39;11.63;;;6.60;;
76604;SDS011;73179;50.978;16.998;2023-11-21T07:51:07;16.98;;;6.60;;
76604;SDS011;73179;50.978;16.998;2023-11-21T07:53:34;15.07;;;6.30;;
76604;SDS011;73179;50.978;16.998;2023-11-21T07:56:04;12.63;;;6.43;;
76604;SDS011;73179;50.978;16.998;2023-11-21T07:58:31;11.73;;;5.57;;
76604;SDS011;73179;50.978;16.998;2023-11-21T08:01:01;14.52;;;6.68;;
76604;SDS011;73179;50.978;16.998;2023-11-21T08:03:28;13.75;;;6.35;;
76604;SDS011;73179;50.978;16.998;2023-11-21T08:05:56;11.10;;;5.97;;
76604;SDS011;73179;50.978;16.998;2023-11-21T08:08:23;10.60;;;5.63;;
76604;SDS011;73179;50.978;16.998;2023-11-21T08:10:50;11.25;;;5.95;;
76604;SDS011;73179;50.978;16.998;2023-11-21T08:13:25;11.77;;;5.32;;
76604;SDS011;73179;50.978;16.998;2023-11-21T08:15:56;15.48;;;6.13;;
76604;SDS011;73179;50.978;16.998;2023-11-21T08:18:27;10.25;;;6.18;;
76604;SDS011;73179;50.978;16.998;2023-11-21T08:20:56;11.85;;;6.60;;
76604;SDS011;73179;50.978;16.998;2023-11-21T08:23:23;12.15;;;6.00;;
76604;SDS011;73179;50.978;16.998;2023-11-21T08:25:52;9.48;;;5.88;;
76604;SDS011;73179;50.978;16.998;2023-11-21T08:28:19;12.07;;;6.30;;
76604;SDS011;73179;50.978;16.998;2023-11-21T08:30:47;14.82;;;7.00;;
76604;SDS011;73179;50.978;16.998;2023-11-21T08:33:13;14.15;;;7.28;;
76604;SDS011;73179;50.978;16.998;2023-11-21T08:35:40;10.90;;;6.22;;
76604;SDS011;73179;50.978;16.998;2023-11-21T08:38:06;14.10;;;6.47;;
76604;SDS011;73179;50.978;16.998;2023-11-21T08:40:32;10.38;;;6.88;;
76604;SDS011;73179;50.978;16.998;2023-11-21T08:42:57;12.52;;;6.72;;
76604;SDS011;73179;50.978;16.998;2023-11-21T08:45:26;11.60;;;6.13;;
76604;SDS011;73179;50.978;16.998;2023-11-21T08:47:52;11.48;;;6.25;;
76604;SDS011;73179;50.978;16.998;2023-11-21T08:50:18;12.75;;;6.68;;
76604;SDS011;73179;50.978;16.998;2023-11-21T08:52:44;14.35;;;6.13;;
76604;SDS011;73179;50.978;16.998;2023-11-21T08:55:14;12.98;;;6.05;;
76604;SDS011;73179;50.978;16.998;2023-11-21T08:57:40;12.30;;;5.80;;
76604;SDS011;73179;50.978;16.998;2023-11-21T09:00:10;8.13;;;5.10;;
76604;SDS011;73179;50.978;16.998;2023-11-21T09:02:40;11.25;;;5.63;;
76604;SDS011;73179;50.978;16.998;2023-11-21T09:05:10;10.05;;;5.50;;
76604;SDS011;73179;50.978;16.998;2023-11-21T09:07:37;10.88;;;5.13;;
76604;SDS011;73179;50.978;16.998;2023-11-21T09:10:04;9.60;;;5.22;;
76604;SDS011;73179;50.978;16.998;2023-11-21T09:12:33;12.48;;;5.38;;
76604;SDS011;73179;50.978;16.998;2023-11-21T09:15:02;7.90;;;5.00;;
76604;SDS011;73179;50.978;16.998;2023-11-21T09:17:30;13.00;;;5.45;;
76604;SDS011;73179;50.978;16.998;2023-11-21T09:19:56;10.82;;;4.88;;
76604;SDS011;73179;50.978;16.998;2023-11-21T09:22:22;9.38;;;4.65;;
76604;SDS011;73179;50.978;16.998;2023-11-21T09:24:51;11.80;;;5.18;;
76604;SDS011;73179;50.978;16.998;2023-11-21T09:27:17;8.57;;;4.35;;
76604;SDS011;73179;50.978;16.998;2023-11-21T09:29:44;5.95;;;4.20;;
76604;SDS011;73179;50.978;16.998;2023-11-21T09:32:11;9.32;;;5.13;;
76604;SDS011;73179;50.978;16.998;2023-11-21T09:34:40;10.30;;;4.85;;
76604;SDS011;73179;50.978;16.998;2023-11-21T09:37:07;9.43;;;4.43;;
76604;SDS011;73179;50.978;16.998;2023-11-21T09:39:34;11.65;;;5.20;;
76604;SDS011;73179;50.978;16.998;2023-11-21T09:42:13;7.15;;;3.80;;
76604;SDS011;73179;50.978;16.998;2023-11-21T09:47:31;8.80;;;4.47;;
76604;SDS011;73179;50.978;16.998;2023-11-21T09:50:01;11.23;;;5.45;;
76604;SDS011;73179;50.978;16.998;2023-11-21T09:52:28;9.50;;;5.22;;
76604;SDS011;73179;50.978;16.998;2023-11-21T09:54:55;9.68;;;4.80;;
76604;SDS011;73179;50.978;16.998;2023-11-21T09:57:25;6.43;;;4.10;;
76604;SDS011;73179;50.978;16.998;2023-11-21T09:59:54;6.97;;;5.13;;
76604;SDS011;73179;50.978;16.998;2023-11-21T10:02:22;9.55;;;4.80;;
76604;SDS011;73179;50.978;16.998;2023-11-21T10:04:52;9.20;;;4.35;;
76604;SDS011;73179;50.978;16.998;2023-11-21T10:07:18;7.68;;;4.50;;
76604;SDS011;73179;50.978;16.998;2023-11-21T10:09:46;9.13;;;4.40;;
76604;SDS011;73179;50.978;16.998;2023-11-21T10:12:14;14.63;;;5.80;;
76604;SDS011;73179;50.978;16.998;2023-11-21T10:14:42;9.75;;;5.90;;
76604;SDS011;73179;50.978;16.998;2023-11-21T10:17:12;12.70;;;6.43;;
76604;SDS011;73179;50.978;16.998;2023-11-21T10:19:41;8.75;;;5.32;;
76604;SDS011;73179;50.978;16.998;2023-11-21T10:22:08;10.80;;;6.47;;
76604;SDS011;73179;50.978;16.998;2023-11-21T10:24:35;9.63;;;4.95;;
76604;SDS011;73179;50.978;16.998;2023-11-21T10:27:03;7.65;;;5.07;;
76604;SDS011;73179;50.978;16.998;2023-11-21T10:29:30;9.80;;;4.97;;
76604;SDS011;73179;50.978;16.998;2023-11-21T10:31:56;8.10;;;4.90;;
76604;SDS011;73179;50.978;16.998;2023-11-21T10:34:24;7.53;;;4.75;;
76604;SDS011;73179;50.978;16.998;2023-11-21T10:36:53;7.43;;;4.47;;
76604;SDS011;73179;50.978;16.998;2023-11-21T10:39:19;10.40;;;5.00;;
76604;SDS011;73179;50.978;16.998;2023-11-21T10:41:49;11.30;;;6.40;;
76604;SDS011;73179;50.978;16.998;2023-11-21T10:44:16;8.88;;;5.30;;
76604;SDS011;73179;50.978;16.998;2023-11-21T10:46:55;11.18;;;6.05;;
76604;SDS011;73179;50.978;16.998;2023-11-21T10:49:25;8.88;;;4.80;;
76604;SDS011;73179;50.978;16.998;2023-11-21T10:51:55;9.18;;;5.20;;
76604;SDS011;73179;50.978;16.998;2023-11-21T10:54:25;9.57;;;5.55;;
76604;SDS011;73179;50.978;16.998;2023-11-21T10:56:57;8.63;;;5.40;;
76604;SDS011;73179;50.978;16.998;2023-11-21T10:59:26;9.52;;;5.72;;
76604;SDS011;73179;50.978;16.998;2023-11-21T11:01:54;9.55;;;5.68;;
76604;SDS011;73179;50.978;16.998;2023-11-21T11:04:24;7.97;;;5.82;;
76604;SDS011;73179;50.978;16.998;2023-11-21T11:06:57;9.68;;;6.00;;
76604;SDS011;73179;50.978;16.998;2023-11-21T11:09:27;11.95;;;8.10;;
76604;SDS011;73179;50.978;16.998;2023-11-21T11:11:56;12.30;;;6.65;;
76604;SDS011;73179;50.978;16.998;2023-11-21T11:14:22;13.15;;;6.97;;
76604;SDS011;73179;50.978;16.998;2023-11-21T11:16:53;11.82;;;7.43;;
76604;SDS011;73179;50.978;16.998;2023-11-21T11:19:21;13.05;;;7.20;;
76604;SDS011;73179;50.978;16.998;2023-11-21T11:21:53;9.60;;;6.72;;
76604;SDS011;73179;50.978;16.998;2023-11-21T11:27:30;8.93;;;6.47;;
76604;SDS011;73179;50.978;16.998;2023-11-21T11:30:53;9.82;;;6.20;;
76604;SDS011;73179;50.978;16.998;2023-11-21T11:33:20;11.32;;;6.95;;
76604;SDS011;73179;50.978;16.998;2023-11-21T11:38:36;10.00;;;6.38;;
76604;SDS011;73179;50.978;16.998;2023-11-21T11:41:04;10.15;;;6.97;;
76604;SDS011;73179;50.978;16.998;2023-11-21T11:43:31;10.32;;;6.63;;
76604;SDS011;73179;50.978;16.998;2023-11-21T11:46:16;13.25;;;7.60;;
76604;SDS011;73179;50.978;16.998;2023-11-21T11:48:42;9.13;;;6.75;;
76604;SDS011;73179;50.978;16.998;2023-11-21T11:51:11;15.23;;;8.05;;
76604;SDS011;73179;50.978;16.998;2023-11-21T11:53:44;11.73;;;6.88;;
76604;SDS011;73179;50.978;16.998;2023-11-21T11:56:25;11.23;;;7.30;;
76604;SDS011;73179;50.978;16.998;2023-11-21T11:59:00;12.45;;;7.13;;
76604;SDS011;73179;50.978;16.998;2023-11-21T12:01:28;11.65;;;7.03;;
76604;SDS011;73179;50.978;16.998;2023-11-21T12:06:43;33.03;;;16.85;;
76604;SDS011;73179;50.978;16.998;2023-11-21T12:09:19;36.53;;;19.02;;
76604;SDS011;73179;50.978;16.998;2023-11-21T12:11:47;30.67;;;17.65;;
76604;SDS011;73179;50.978;16.998;2023-11-21T12:14:14;32.63;;;16.35;;
76604;SDS011;73179;50.978;16.998;2023-11-21T12:16:42;44.33;;;21.77;;
76604;SDS011;73179;50.978;16.998;2023-11-21T12:19:09;44.42;;;22.20;;
76604;SDS011;73179;50.978;16.998;2023-11-21T12:21:36;38.53;;;19.42;;
76604;SDS011;73179;50.978;16.998;2023-11-21T12:24:02;44.10;;;21.23;;
76604;SDS011;73179;50.978;16.998;2023-11-21T12:26:29;50.30;;;21.73;;
76604;SDS011;73179;50.978;16.998;2023-11-21T12:28:55;40.42;;;20.80;;
76604;SDS011;73179;50.978;16.998;2023-11-21T12:31:22;40.78;;;19.55;;
76604;SDS011;73179;50.978;16.998;2023-11-21T12:33:48;44.00;;;21.20;;
76604;SDS011;73179;50.978;16.998;2023-11-21T12:36:15;48.67;;;24.63;;
76604;SDS011;73179;50.978;16.998;2023-11-21T12:38:41;43.92;;;20.77;;
76604;SDS011;73179;50.978;16.998;2023-11-21T12:41:09;47.80;;;22.35;;
76604;SDS011;73179;50.978;16.998;2023-11-21T12:43:38;45.15;;;22.80;;
76604;SDS011;73179;50.978;16.998;2023-11-21T12:46:08;52.55;;;23.42;;
76604;SDS011;73179;50.978;16.998;2023-11-21T12:48:39;47.42;;;22.33;;
76604;SDS011;73179;50.978;16.998;2023-11-21T12:51:09;43.97;;;21.60;;
76604;SDS011;73179;50.978;16.998;2023-11-21T12:53:44;45.45;;;23.02;;
76604;SDS011;73179;50.978;16.998;2023-11-21T12:56:11;46.22;;;22.50;;
76604;SDS011;73179;50.978;16.998;2023-11-21T12:58:38;44.80;;;23.40;;
76604;SDS011;73179;50.978;16.998;2023-11-21T13:01:05;45.90;;;22.20;;
76604;SDS011;73179;50.978;16.998;2023-11-21T13:03:40;43.35;;;20.73;;
76604;SDS011;73179;50.978;16.998;2023-11-21T13:06:07;38.88;;;20.65;;
76604;SDS011;73179;50.978;16.998;2023-11-21T13:08:33;46.13;;;22.95;;
76604;SDS011;73179;50.978;16.998;2023-11-21T13:10:59;46.00;;;22.75;;
76604;SDS011;73179;50.978;16.998;2023-11-21T13:13:28;41.72;;;19.20;;
76604;SDS011;73179;50.978;16.998;2023-11-21T13:15:55;42.03;;;21.00;;
76604;SDS011;73179;50.978;16.998;2023-11-21T13:18:31;51.20;;;22.13;;
76604;SDS011;73179;50.978;16.998;2023-11-21T13:20:58;44.42;;;21.85;;
76604;SDS011;73179;50.978;16.998;2023-11-21T13:23:25;48.55;;;21.63;;
76604;SDS011;73179;50.978;16.998;2023-11-21T13:25:53;45.70;;;21.77;;
76604;SDS011;73179;50.978;16.998;2023-11-21T13:28:19;42.72;;;21.05;;
76604;SDS011;73179;50.978;16.998;2023-11-21T13:30:47;41.22;;;19.17;;
76604;SDS011;73179;50.978;16.998;2023-11-21T13:33:14;36.50;;;17.90;;
76604;SDS011;73179;50.978;16.998;2023-11-21T13:35:47;38.78;;;20.63;;
76604;SDS011;73179;50.978;16.998;2023-11-21T13:38:16;35.45;;;17.25;;
76604;SDS011;73179;50.978;16.998;2023-11-21T13:40:47;33.70;;;16.00;;
76604;SDS011;73179;50.978;16.998;2023-11-21T13:43:20;26.70;;;13.35;;
76604;SDS011;73179;50.978;16.998;2023-11-21T13:45:50;24.95;;;11.18;;
76604;SDS011;73179;50.978;16.998;2023-11-21T13:48:34;25.52;;;12.45;;
76604;SDS011;73179;50.978;16.998;2023-11-21T13:51:10;26.25;;;13.82;;
76604;SDS011;73179;50.978;16.998;2023-11-21T13:53:45;22.48;;;12.68;;
76604;SDS011;73179;50.978;16.998;2023-11-21T13:56:15;23.08;;;11.40;;
76604;SDS011;73179;50.978;16.998;2023-11-21T13:58:53;30.00;;;13.57;;
76604;SDS011;73179;50.978;16.998;2023-11-21T14:01:22;19.60;;;10.77;;
76604;SDS011;73179;50.978;16.998;2023-11-21T14:03:59;18.70;;;10.52;;
76604;SDS011;73179;50.978;16.998;2023-11-21T14:06:46;17.70;;;10.52;;
76604;SDS011;73179;50.978;16.998;2023-11-21T14:09:18;16.92;;;10.70;;
76604;SDS011;73179;50.978;16.998;2023-11-21T14:11:51;17.13;;;9.82;;
76604;SDS011;73179;50.978;16.998;2023-11-21T14:14:23;12.77;;;7.18;;
76604;SDS011;73179;50.978;16.998;2023-11-21T14:16:51;17.50;;;8.68;;
76604;SDS011;73179;50.978;16.998;2023-11-21T14:22:10;13.10;;;8.32;;
76604;SDS011;73179;50.978;16.998;2023-11-21T14:24:36;14.70;;;8.70;;
76604;SDS011;73179;50.978;16.998;2023-11-21T14:27:02;13.25;;;8.05;;
76604;SDS011;73179;50.978;16.998;2023-11-21T14:29:31;14.38;;;7.85;;
76604;SDS011;73179;50.978;16.998;2023-11-21T14:32:02;16.83;;;8.60;;
76604;SDS011;73179;50.978;16.998;2023-11-21T14:34:28;16.25;;;8.55;;
76604;SDS011;73179;50.978;16.998;2023-11-21T14:36:54;14.57;;;7.72;;
76604;SDS011;73179;50.978;16.998;2023-11-21T14:39:20;11.48;;;7.80;;
76604;SDS011;73179;50.978;16.998;2023-11-21T14:41:52;11.05;;;7.70;;